createdAt,value
2024-03-03T00:01:49.846Z,7.43
2024-03-03T00:04:16.998Z,8.70
2024-03-03T00:06:44.173Z,6.83
2024-03-03T00:09:11.293Z,8.50
2024-03-03T00:11:38.378Z,7.43
2024-03-03T00:14:05.374Z,8.57
2024-03-03T00:16:32.904Z,8.60
2024-03-03T00:19:00.665Z,9.10
2024-03-03T00:21:28.492Z,8.83
2024-03-03T00:23:55.576Z,8.37
2024-03-03T00:26:22.589Z,7.53
2024-03-03T00:28:49.596Z,6.97
2024-03-03T00:31:17.727Z,8.27
2024-03-03T00:33:44.888Z,8.43
2024-03-03T00:36:12.282Z,8.23
2024-03-03T00:38:39.475Z,7.47
2024-03-03T00:41:06.896Z,7.70
2024-03-03T00:43:34.061Z,8.63
2024-03-03T00:46:01.331Z,8.67
2024-03-03T00:48:28.832Z,8.40
2024-03-03T00:50:56.036Z,8.70
2024-03-03T00:53:23.643Z,6.87
2024-03-03T00:55:52.553Z,8.30
2024-03-03T00:58:21.345Z,8.13
2024-03-03T01:00:48.541Z,7.60
2024-03-03T01:03:15.786Z,8.00
2024-03-03T01:05:42.845Z,8.77
2024-03-03T01:08:10.063Z,7.57
2024-03-03T01:10:37.232Z,8.27
2024-03-03T01:13:04.637Z,7.60
2024-03-03T01:15:31.783Z,7.73
2024-03-03T01:17:58.829Z,7.10
2024-03-03T01:20:25.832Z,8.20
2024-03-03T01:22:52.880Z,7.60
2024-03-03T01:25:20.012Z,7.40
2024-03-03T01:27:47.565Z,8.33
2024-03-03T01:30:14.682Z,8.30
2024-03-03T01:32:41.836Z,7.43
2024-03-03T01:35:09.341Z,8.03
2024-03-03T01:37:36.523Z,7.80
2024-03-03T01:40:05.762Z,7.90
2024-03-03T01:42:33.017Z,8.10
2024-03-03T01:45:00.032Z,9.27
2024-03-03T01:47:27.983Z,7.83
2024-03-03T01:49:57.274Z,8.10
2024-03-03T01:52:26.857Z,8.20
2024-03-03T01:54:54.245Z,6.87
2024-03-03T01:57:23.447Z,8.90
2024-03-03T01:59:52.282Z,7.50
2024-03-03T02:02:19.567Z,7.80
2024-03-03T02:04:47.449Z,7.10
2024-03-03T02:07:15.687Z,7.30
2024-03-03T02:09:45.874Z,7.97
2024-03-03T02:12:13.792Z,7.40
2024-03-03T02:14:41.040Z,7.67
2024-03-03T02:17:08.065Z,7.40
2024-03-03T02:19:35.871Z,7.50
2024-03-03T02:22:03.165Z,7.37
2024-03-03T02:24:30.272Z,6.70
2024-03-03T02:26:58.582Z,6.53
2024-03-03T02:29:27.319Z,6.87
2024-03-03T02:31:54.383Z,7.47
2024-03-03T02:34:22.971Z,6.80
2024-03-03T02:36:50.103Z,6.90
2024-03-03T02:39:17.293Z,7.43
2024-03-03T02:41:44.408Z,7.33
2024-03-03T02:44:11.500Z,7.17
2024-03-03T02:46:38.671Z,8.80
2024-03-03T02:49:05.801Z,7.90
2024-03-03T02:51:32.862Z,8.70
2024-03-03T02:54:00.052Z,8.00
2024-03-03T02:56:27.123Z,9.50
2024-03-03T02:58:54.294Z,10.10
2024-03-03T03:01:21.458Z,7.73
2024-03-03T03:03:49.127Z,9.20
2024-03-03T03:06:16.196Z,8.23
2024-03-03T03:08:43.275Z,10.57
2024-03-03T03:11:10.638Z,10.43
2024-03-03T03:13:41.175Z,12.73
2024-03-03T03:16:08.875Z,12.90
2024-03-03T03:18:36.233Z,12.10
2024-03-03T03:21:09.692Z,12.70
2024-03-03T03:23:36.869Z,11.00
2024-03-03T03:26:04.462Z,10.43
2024-03-03T03:28:31.692Z,11.40
2024-03-03T03:30:58.911Z,11.20
2024-03-03T03:33:26.605Z,11.57
2024-03-03T03:35:53.743Z,12.07
2024-03-03T03:38:20.959Z,11.97
2024-03-03T03:40:48.123Z,11.23
2024-03-03T03:43:15.460Z,10.53
2024-03-03T03:45:42.803Z,10.40
2024-03-03T03:48:10.016Z,11.50
2024-03-03T03:50:37.493Z,11.00
2024-03-03T03:53:05.293Z,11.13
2024-03-03T03:55:32.337Z,11.17
2024-03-03T03:57:59.507Z,11.00
2024-03-03T04:00:26.691Z,10.57
2024-03-03T04:02:53.972Z,12.23
2024-03-03T04:05:21.179Z,11.77
2024-03-03T04:07:48.231Z,8.70
2024-03-03T04:10:20.129Z,9.00
2024-03-03T04:12:47.486Z,7.83
2024-03-03T04:15:16.043Z,9.70
2024-03-03T04:17:43.664Z,10.60
2024-03-03T04:20:11.664Z,9.83
2024-03-03T04:22:38.730Z,10.17
2024-03-03T04:25:06.553Z,9.80
2024-03-03T04:27:33.722Z,10.63
2024-03-03T04:30:00.771Z,11.50
2024-03-03T04:32:27.992Z,10.97
2024-03-03T04:34:55.174Z,11.07
2024-03-03T04:37:22.400Z,12.20
2024-03-03T04:39:49.940Z,11.90
2024-03-03T04:42:17.101Z,10.80
2024-03-03T04:44:44.424Z,10.87
2024-03-03T04:47:11.953Z,10.70
2024-03-03T04:49:42.640Z,11.03
2024-03-03T04:52:10.041Z,11.57
2024-03-03T04:54:38.170Z,10.50
2024-03-03T04:57:05.583Z,10.20
2024-03-03T04:59:32.948Z,9.40
2024-03-03T05:02:00.175Z,8.33
2024-03-03T05:04:28.696Z,9.37
2024-03-03T05:06:56.184Z,9.20
2024-03-03T05:09:23.331Z,9.80
2024-03-03T05:11:50.661Z,10.40
2024-03-03T05:14:17.904Z,11.00
2024-03-03T05:16:45.009Z,11.60
2024-03-03T05:19:12.297Z,9.73
2024-03-03T05:21:40.324Z,10.47
2024-03-03T05:24:07.644Z,11.73
2024-03-03T05:26:34.743Z,9.70
2024-03-03T05:29:03.858Z,11.73
2024-03-03T05:31:41.175Z,11.33
2024-03-03T05:34:16.668Z,10.77
2024-03-03T05:36:44.644Z,10.77
2024-03-03T05:39:12.172Z,9.63
2024-03-03T05:41:42.650Z,11.97
2024-03-03T05:44:10.180Z,12.60
2024-03-03T05:46:40.672Z,12.27
2024-03-03T05:49:07.860Z,11.50
2024-03-03T05:51:34.940Z,14.30
2024-03-03T05:54:02.966Z,12.10
2024-03-03T05:56:30.150Z,11.47
2024-03-03T05:58:57.284Z,12.33
2024-03-03T06:01:24.487Z,14.43
2024-03-03T06:03:51.859Z,13.10
2024-03-03T06:06:19.070Z,10.60
2024-03-03T06:08:46.779Z,12.10
2024-03-03T06:11:17.472Z,10.47
2024-03-03T06:13:44.843Z,12.20
2024-03-03T06:16:12.165Z,16.70
2024-03-03T06:18:39.393Z,12.23
2024-03-03T06:21:08.293Z,9.10
2024-03-03T06:23:37.335Z,13.70
2024-03-03T06:26:04.572Z,12.10
2024-03-03T06:28:31.667Z,9.83
2024-03-03T06:30:58.816Z,8.80
2024-03-03T06:33:27.393Z,8.60
2024-03-03T06:35:54.472Z,9.13
2024-03-03T06:38:21.555Z,8.77
2024-03-03T06:40:50.289Z,9.03
2024-03-03T06:43:17.591Z,11.10
2024-03-03T06:45:44.816Z,10.40
2024-03-03T06:48:12.068Z,9.90
2024-03-03T06:50:39.569Z,9.37
2024-03-03T06:53:06.754Z,11.40
2024-03-03T06:55:34.229Z,11.13
2024-03-03T06:58:01.491Z,11.40
2024-03-03T07:00:28.749Z,9.10
2024-03-03T07:03:10.838Z,8.80
2024-03-03T07:05:38.196Z,10.37
2024-03-03T07:08:05.739Z,8.43
2024-03-03T07:10:33.236Z,8.63
2024-03-03T07:13:00.295Z,8.70
2024-03-03T07:15:27.378Z,7.97
2024-03-03T07:17:54.450Z,8.70
2024-03-03T07:20:21.772Z,9.67
2024-03-03T07:22:48.870Z,10.50
2024-03-03T07:25:16.046Z,12.50
2024-03-03T07:27:43.130Z,11.57
2024-03-03T07:30:11.121Z,12.33
2024-03-03T07:32:41.371Z,11.87
2024-03-03T07:35:09.662Z,13.00
2024-03-03T07:37:38.848Z,10.07
2024-03-03T07:40:07.540Z,9.60
2024-03-03T07:42:34.650Z,10.67
2024-03-03T07:45:01.805Z,12.23
2024-03-03T07:47:29.144Z,11.13
2024-03-03T07:49:56.415Z,14.20
2024-03-03T07:52:23.543Z,13.93
2024-03-03T07:54:50.979Z,13.80
2024-03-03T07:57:18.176Z,10.20
2024-03-03T07:59:45.534Z,11.13
2024-03-03T08:02:12.871Z,10.30
2024-03-03T08:04:40.149Z,10.60
2024-03-03T08:07:07.279Z,11.23
2024-03-03T08:09:34.483Z,12.93
2024-03-03T08:12:01.690Z,11.00
2024-03-03T08:14:29.092Z,9.63
2024-03-03T08:16:56.203Z,9.90
2024-03-03T08:19:23.379Z,9.83
2024-03-03T08:21:50.486Z,9.40
2024-03-03T08:24:17.949Z,10.10
2024-03-03T08:26:51.323Z,10.00
2024-03-03T08:29:18.668Z,9.10
2024-03-03T08:31:46.534Z,9.40
2024-03-03T08:34:13.893Z,8.83
2024-03-03T08:36:42.317Z,8.43
2024-03-03T08:39:11.913Z,8.37
2024-03-03T08:41:43.186Z,8.20
2024-03-03T08:44:11.279Z,8.33
2024-03-03T08:46:38.268Z,7.50
2024-03-03T08:49:06.062Z,7.10
2024-03-03T08:51:38.592Z,8.23
2024-03-03T08:54:06.280Z,8.03
2024-03-03T08:56:33.729Z,8.47
2024-03-03T08:59:00.844Z,7.63
2024-03-03T09:01:27.998Z,7.30
2024-03-03T09:03:55.166Z,7.63
2024-03-03T09:06:22.481Z,7.30
2024-03-03T09:08:49.534Z,5.90
2024-03-03T09:11:16.927Z,5.63
2024-03-03T09:13:43.966Z,7.63
2024-03-03T09:16:12.811Z,7.07
2024-03-03T09:18:40.141Z,7.23
2024-03-03T09:21:08.495Z,7.83
2024-03-03T09:23:36.275Z,6.03
2024-03-03T09:26:04.480Z,5.20
2024-03-03T09:28:31.634Z,5.77
2024-03-03T09:30:58.822Z,6.10
2024-03-03T09:33:25.977Z,4.60
2024-03-03T09:35:53.796Z,4.30
2024-03-03T09:38:20.826Z,3.97
2024-03-03T09:40:48.042Z,1.73
2024-03-03T09:43:17.956Z,1.93
2024-03-03T09:45:48.462Z,0.70
2024-03-03T09:48:15.743Z,0.93
2024-03-03T09:50:44.062Z,0.77
2024-03-03T09:53:11.157Z,0.60
2024-03-03T09:55:39.237Z,0.90
2024-03-03T09:58:09.833Z,0.70
2024-03-03T10:00:37.030Z,0.70
2024-03-03T10:03:04.740Z,0.70
2024-03-03T10:05:33.417Z,0.80
2024-03-03T10:08:04.821Z,0.90
2024-03-03T10:10:36.829Z,0.67
2024-03-03T10:13:08.178Z,0.60
2024-03-03T10:15:36.936Z,0.73
2024-03-03T10:18:04.454Z,0.80
2024-03-03T10:20:33.588Z,0.70
2024-03-03T10:23:00.937Z,0.77
2024-03-03T10:25:28.171Z,0.70
2024-03-03T10:28:14.506Z,0.90
2024-03-03T10:30:41.823Z,0.70
2024-03-03T10:33:09.783Z,0.60
2024-03-03T10:35:37.440Z,0.87
2024-03-03T10:38:05.203Z,0.67
2024-03-03T10:40:35.268Z,0.60
2024-03-03T10:43:02.552Z,0.70
2024-03-03T10:45:30.296Z,0.70
2024-03-03T10:47:58.627Z,0.77
2024-03-03T10:50:25.971Z,1.10
2024-03-03T10:52:54.219Z,0.70
2024-03-03T10:55:21.354Z,0.70
2024-03-03T10:57:49.993Z,0.80
2024-03-03T11:00:26.249Z,0.60
2024-03-03T11:02:55.445Z,0.60
2024-03-03T11:05:23.702Z,0.70
2024-03-03T11:07:51.905Z,0.60
2024-03-03T11:10:19.323Z,0.60
2024-03-03T11:12:51.402Z,0.80
2024-03-03T11:15:22.953Z,0.60
2024-03-03T11:17:59.443Z,0.60
2024-03-03T11:20:40.452Z,0.60
2024-03-03T11:23:10.669Z,0.60
2024-03-03T11:26:01.086Z,0.80
2024-03-03T11:28:30.052Z,0.80
2024-03-03T11:30:57.751Z,0.70
2024-03-03T11:33:26.311Z,0.77
2024-03-03T11:35:54.121Z,0.70
2024-03-03T11:38:22.514Z,0.50
2024-03-03T11:40:50.028Z,0.73
2024-03-03T11:43:17.302Z,0.60
2024-03-03T11:45:49.832Z,0.60
2024-03-03T11:48:17.322Z,1.00
2024-03-03T11:50:44.723Z,0.87
2024-03-03T11:53:12.009Z,0.90
2024-03-03T11:55:40.007Z,0.77
2024-03-03T11:58:08.972Z,0.70
2024-03-03T12:00:36.402Z,0.57
2024-03-03T12:03:03.884Z,0.60
2024-03-03T12:05:31.167Z,0.60
2024-03-03T12:07:58.676Z,0.63
2024-03-03T12:10:31.982Z,0.73
2024-03-03T12:13:02.283Z,0.50
2024-03-03T12:15:30.838Z,0.70
2024-03-03T12:18:00.898Z,0.60
2024-03-03T12:20:29.443Z,0.80
2024-03-03T12:22:57.406Z,0.70
2024-03-03T12:25:26.207Z,0.60
2024-03-03T12:28:00.979Z,1.00
2024-03-03T12:30:35.311Z,0.60
2024-03-03T12:33:05.874Z,0.70
2024-03-03T12:35:33.872Z,0.73
2024-03-03T12:38:01.568Z,0.70
2024-03-03T12:40:29.316Z,0.80
2024-03-03T12:42:56.640Z,0.70
2024-03-03T12:45:23.837Z,0.90
2024-03-03T12:47:51.246Z,0.80
2024-03-03T12:50:20.330Z,0.67
2024-03-03T12:52:48.763Z,0.93
2024-03-03T12:55:17.263Z,1.00
2024-03-03T12:57:45.700Z,0.67
2024-03-03T13:00:16.960Z,0.73
2024-03-03T13:02:44.891Z,0.70
2024-03-03T13:05:16.980Z,0.90
2024-03-03T13:07:51.810Z,0.80
2024-03-03T13:10:23.913Z,0.70
2024-03-03T13:12:52.032Z,0.80
2024-03-03T13:15:20.642Z,0.70
2024-03-03T13:18:07.050Z,0.60
2024-03-03T13:20:35.114Z,0.80
2024-03-03T13:23:17.242Z,0.63
2024-03-03T13:25:45.042Z,0.70
2024-03-03T13:28:14.882Z,0.80
2024-03-03T13:30:59.636Z,1.03
2024-03-03T13:33:33.593Z,0.80
2024-03-03T13:36:02.565Z,0.90
2024-03-03T13:38:29.801Z,0.90
2024-03-03T13:40:57.085Z,0.90
2024-03-03T13:43:25.311Z,0.80
2024-03-03T13:45:52.762Z,0.87
2024-03-03T13:48:20.046Z,1.10
2024-03-03T13:50:47.599Z,0.80
2024-03-03T13:53:18.476Z,0.90
2024-03-03T13:55:49.381Z,0.80
2024-03-03T13:58:16.942Z,0.70
2024-03-03T14:00:44.484Z,0.70
2024-03-03T14:03:12.044Z,0.90
2024-03-03T14:05:39.066Z,1.00
2024-03-03T14:08:06.686Z,1.83
2024-03-03T14:10:34.317Z,1.10
2024-03-03T14:13:05.783Z,0.90
2024-03-03T14:15:34.043Z,0.87
2024-03-03T14:18:01.665Z,1.20
2024-03-03T14:20:29.677Z,1.00
2024-03-03T14:22:57.198Z,0.70
2024-03-03T14:25:26.327Z,0.73
2024-03-03T14:28:04.278Z,1.20
2024-03-03T14:30:37.010Z,0.83
2024-03-03T14:33:06.210Z,1.40
2024-03-03T14:35:33.778Z,0.80
2024-03-03T14:38:01.327Z,0.83
2024-03-03T14:40:28.607Z,0.93
2024-03-03T14:42:56.528Z,1.03
2024-03-03T14:45:25.128Z,0.80
2024-03-03T14:47:52.429Z,1.00
2024-03-03T14:50:21.060Z,0.90
2024-03-03T14:52:48.311Z,1.27
2024-03-03T14:55:17.465Z,1.00
2024-03-03T14:57:44.951Z,1.00
2024-03-03T15:00:13.829Z,0.83
2024-03-03T15:02:41.521Z,1.00
2024-03-03T15:05:09.004Z,0.80
2024-03-03T15:07:36.739Z,0.80
2024-03-03T15:10:07.804Z,0.70
2024-03-03T15:12:35.511Z,0.97
2024-03-03T15:15:04.032Z,1.03
2024-03-03T15:17:31.542Z,0.70
2024-03-03T15:19:58.890Z,0.83
2024-03-03T15:22:26.575Z,0.87
2024-03-03T15:24:53.986Z,0.70
2024-03-03T15:27:21.820Z,0.70
2024-03-03T15:29:49.214Z,0.87
2024-03-03T15:32:16.322Z,0.90
2024-03-03T15:34:43.691Z,0.90
2024-03-03T15:37:11.348Z,0.80
2024-03-03T15:39:40.016Z,1.00
2024-03-03T15:42:07.488Z,0.87
2024-03-03T15:44:35.290Z,0.97
2024-03-03T15:47:03.336Z,1.10
2024-03-03T15:49:30.592Z,0.80
2024-03-03T15:51:57.911Z,0.70
2024-03-03T15:54:25.016Z,0.80
2024-03-03T15:56:52.181Z,1.30
2024-03-03T15:59:19.298Z,0.80
2024-03-03T16:01:46.420Z,1.00
2024-03-03T16:04:13.615Z,0.97
2024-03-03T16:06:40.777Z,0.80
2024-03-03T16:09:08.056Z,1.20
2024-03-03T16:11:35.662Z,0.83
2024-03-03T16:14:03.608Z,1.00
2024-03-03T16:16:31.199Z,0.70
2024-03-03T16:18:58.569Z,0.80
2024-03-03T16:21:28.321Z,0.80
2024-03-03T16:23:58.218Z,1.30
2024-03-03T16:26:25.910Z,0.83
2024-03-03T16:28:53.169Z,1.00
2024-03-03T16:31:20.690Z,1.00
2024-03-03T16:33:48.200Z,1.40
2024-03-03T16:36:19.050Z,1.10
2024-03-03T16:38:48.365Z,1.00
2024-03-03T16:41:16.871Z,1.50
2024-03-03T16:43:43.936Z,1.40
2024-03-03T16:46:11.256Z,0.90
2024-03-03T16:48:38.624Z,0.93
2024-03-03T16:51:07.174Z,1.30
2024-03-03T16:53:34.434Z,1.43
2024-03-03T16:56:02.351Z,1.40
2024-03-03T16:58:29.899Z,1.40
2024-03-03T17:00:57.299Z,1.50
2024-03-03T17:03:25.108Z,1.40
2024-03-03T17:05:52.301Z,1.40
2024-03-03T17:08:19.313Z,1.43
2024-03-03T17:10:46.550Z,1.53
2024-03-03T17:13:13.709Z,2.20
2024-03-03T17:15:40.806Z,1.90
2024-03-03T17:18:08.622Z,1.70
2024-03-03T17:20:35.856Z,2.73
2024-03-03T17:23:03.238Z,2.10
2024-03-03T17:25:32.746Z,4.07
2024-03-03T17:28:00.601Z,2.07
2024-03-03T17:30:27.747Z,2.50
2024-03-03T17:32:55.147Z,2.80
2024-03-03T17:35:23.241Z,2.63
2024-03-03T17:37:50.730Z,2.03
2024-03-03T17:40:17.930Z,2.37
2024-03-03T17:42:45.040Z,1.80
2024-03-03T17:45:13.962Z,1.80
2024-03-03T17:47:41.229Z,2.20
2024-03-03T17:50:09.704Z,2.20
2024-03-03T17:52:36.841Z,2.40
2024-03-03T17:55:05.160Z,2.53
2024-03-03T17:57:33.661Z,2.67
2024-03-03T18:00:02.510Z,2.20
2024-03-03T18:02:29.574Z,2.27
2024-03-03T18:04:56.685Z,3.20
2024-03-03T18:07:26.711Z,3.90
2024-03-03T18:09:53.737Z,2.43
2024-03-03T18:12:21.927Z,2.60
2024-03-03T18:14:50.805Z,2.37
2024-03-03T18:17:17.828Z,2.27
2024-03-03T18:19:44.972Z,2.90
2024-03-03T18:22:12.293Z,2.50
2024-03-03T18:24:39.322Z,2.70
2024-03-03T18:27:06.522Z,3.10
2024-03-03T18:29:33.551Z,2.10
2024-03-03T18:32:02.304Z,1.93
2024-03-03T18:34:30.743Z,1.73
2024-03-03T18:36:58.156Z,1.80
2024-03-03T18:39:25.429Z,2.30
2024-03-03T18:41:53.142Z,3.00
2024-03-03T18:44:20.433Z,1.60
2024-03-03T18:46:47.578Z,2.33
2024-03-03T18:49:15.242Z,1.83
2024-03-03T18:51:46.374Z,1.77
2024-03-03T18:54:13.601Z,1.87
2024-03-03T18:56:40.724Z,2.10
2024-03-03T18:59:07.895Z,1.83
2024-03-03T19:01:35.016Z,1.77
2024-03-03T19:04:02.278Z,1.70
2024-03-03T19:06:30.400Z,2.37
2024-03-03T19:08:57.468Z,2.00
2024-03-03T19:11:24.634Z,1.30
2024-03-03T19:13:51.837Z,2.00
2024-03-03T19:16:19.122Z,1.40
2024-03-03T19:18:46.961Z,1.70
2024-03-03T19:21:15.977Z,1.73
2024-03-03T19:23:43.073Z,1.30
2024-03-03T19:26:10.630Z,1.67
2024-03-03T19:28:38.693Z,2.00
2024-03-03T19:31:06.156Z,1.73
2024-03-03T19:33:33.525Z,2.00
2024-03-03T19:36:01.881Z,2.50
2024-03-03T19:38:30.087Z,3.07
2024-03-03T19:40:58.018Z,2.73
2024-03-03T19:43:25.608Z,2.50
2024-03-03T19:45:52.849Z,2.30
2024-03-03T19:48:20.030Z,2.30
2024-03-03T19:50:47.446Z,2.20
2024-03-03T19:53:14.504Z,2.03
2024-03-03T19:55:43.052Z,2.70
2024-03-03T19:58:10.303Z,3.00
2024-03-03T20:00:38.277Z,2.00
2024-03-03T20:03:09.393Z,2.27
2024-03-03T20:05:36.500Z,2.17
2024-03-03T20:08:06.303Z,2.47
2024-03-03T20:10:33.882Z,2.13
2024-03-03T20:13:05.141Z,2.00
2024-03-03T20:15:32.621Z,1.40
2024-03-03T20:17:59.795Z,2.40
2024-03-03T20:20:27.089Z,1.70
2024-03-03T20:22:54.341Z,1.90
2024-03-03T20:25:21.620Z,1.90
2024-03-03T20:27:48.650Z,3.10
2024-03-03T20:30:16.007Z,2.30
2024-03-03T20:32:43.104Z,3.00
2024-03-03T20:35:11.043Z,2.40
2024-03-03T20:37:39.280Z,2.17
2024-03-03T20:40:13.221Z,2.60
2024-03-03T20:42:42.021Z,2.50
2024-03-03T20:45:13.066Z,2.70
2024-03-03T20:47:42.131Z,2.20
2024-03-03T20:50:10.796Z,2.80
2024-03-03T20:52:39.464Z,3.03
2024-03-03T20:55:10.164Z,2.50
2024-03-03T20:57:40.968Z,3.40
2024-03-03T21:00:08.855Z,1.87
2024-03-03T21:02:39.707Z,1.73
2024-03-03T21:05:07.490Z,2.10
2024-03-03T21:07:35.036Z,1.80
2024-03-03T21:10:02.711Z,1.73
2024-03-03T21:12:30.096Z,2.10
2024-03-03T21:14:57.265Z,1.70
2024-03-03T21:17:24.409Z,1.80
2024-03-03T21:19:51.537Z,1.67
2024-03-03T21:22:19.016Z,4.87
2024-03-03T21:24:46.360Z,3.93
2024-03-03T21:27:14.148Z,3.37
2024-03-03T21:29:41.407Z,2.57
2024-03-03T21:32:09.039Z,2.50
2024-03-03T21:34:36.235Z,1.70
2024-03-03T21:37:03.549Z,2.03
2024-03-03T21:39:32.675Z,2.50
2024-03-03T21:42:00.127Z,2.73
2024-03-03T21:44:27.309Z,2.07
2024-03-03T21:46:54.749Z,2.00
2024-03-03T21:49:22.061Z,1.93
2024-03-03T21:51:49.110Z,2.53
2024-03-03T21:54:16.422Z,1.93
2024-03-03T21:56:43.544Z,2.43
2024-03-03T21:59:10.718Z,2.27
2024-03-03T22:01:42.476Z,2.20
2024-03-03T22:04:15.545Z,2.83
2024-03-03T22:06:43.015Z,3.70
2024-03-03T22:09:10.870Z,3.50
2024-03-03T22:11:46.202Z,3.73
2024-03-03T22:14:13.346Z,3.00
2024-03-03T22:16:40.735Z,2.07
2024-03-03T22:19:07.835Z,1.77
2024-03-03T22:21:35.084Z,1.30
2024-03-03T22:24:03.838Z,1.47
2024-03-03T22:26:31.139Z,1.93
2024-03-03T22:28:58.378Z,2.30
2024-03-03T22:31:25.511Z,1.53
2024-03-03T22:33:52.608Z,2.30
2024-03-03T22:36:19.677Z,1.73
2024-03-03T22:38:46.774Z,2.50
2024-03-03T22:41:14.203Z,1.50
2024-03-03T22:43:41.404Z,1.50
2024-03-03T22:46:08.864Z,1.93
2024-03-03T22:48:36.840Z,1.80
2024-03-03T22:51:07.766Z,3.20
2024-03-03T22:53:34.924Z,4.60
2024-03-03T22:56:02.053Z,4.57
2024-03-03T22:58:29.299Z,5.17
2024-03-03T23:00:56.694Z,3.83
2024-03-03T23:03:23.822Z,3.33
2024-03-03T23:05:51.022Z,3.50
2024-03-03T23:08:18.985Z,2.93
2024-03-03T23:10:46.288Z,1.90
2024-03-03T23:13:14.260Z,1.83
2024-03-03T23:15:41.511Z,2.60
2024-03-03T23:18:08.632Z,1.97
2024-03-03T23:20:35.775Z,2.37
2024-03-03T23:23:03.252Z,1.57
2024-03-03T23:25:30.431Z,2.10
2024-03-03T23:27:57.646Z,1.67
2024-03-03T23:30:24.698Z,2.27
2024-03-03T23:32:51.847Z,1.50
2024-03-03T23:35:19.005Z,1.40
2024-03-03T23:37:46.118Z,1.50
2024-03-03T23:40:14.342Z,1.50
2024-03-03T23:42:41.898Z,1.30
2024-03-03T23:45:09.429Z,1.43
2024-03-03T23:47:36.480Z,1.97
2024-03-03T23:50:03.798Z,1.63
2024-03-03T23:52:31.031Z,1.60
2024-03-03T23:54:58.275Z,1.20
2024-03-03T23:57:25.437Z,1.50
2024-03-03T23:59:52.526Z,1.20
